Time;durP1;ratioP1;P1;durP2;ratioP2;P2;SDS_P1;SDS_P2;PMS_P1;PMS_P2;Temp;Humidity;BMP_temperature;BMP_pressure;BME280_temperature;BME280_humidity;BME280_pressure;Samples;Min_cycle;Max_cycle;Signal;HPM_P1;HPM_P2
2022/08/03 00:01:08;;;;;;;;;;;27.50;42.80;;;;;;1636066;71;1178;-66
2022/08/03 00:03:10;;;;;;;;;;;27.50;43.00;;;;;;1635476;72;671;-65
2022/08/03 00:05:12;;;;;;;;;;;27.60;42.90;;;;;;1632522;71;684;-65
2022/08/03 00:07:14;;;;;;;;;;;27.50;42.80;;;;;;1630323;71;557;-64
2022/08/03 00:09:15;;;;;;;;;;;27.50;42.80;;;;;;1636461;72;618;-65
2022/08/03 00:11:17;;;;;;;;;;;27.50;42.90;;;;;;1637828;71;1965;-66
2022/08/03 00:13:19;;;;;;;;;;;27.50;42.90;;;;;;1634604;71;696;-66
2022/08/03 00:15:21;;;;;;;;;;;27.50;42.90;;;;;;1629036;71;887;-65
2022/08/03 00:17:23;;;;;;;;;;;27.40;42.90;;;;;;1636515;71;698;-66
2022/08/03 00:19:25;;;;;;;;;;;27.50;42.90;;;;;;1635130;71;731;-66
2022/08/03 00:21:27;;;;;;;;;;;27.40;42.90;;;;;;1637843;71;1154;-65
2022/08/03 00:23:29;;;;;;;;;;;27.50;42.80;;;;;;1622580;71;836;-66
2022/08/03 00:25:31;;;;;;;;;;;27.50;42.90;;;;;;1630605;71;1399;-65
2022/08/03 00:27:33;;;;;;;;;;;27.50;42.90;;;;;;1633054;71;682;-66
2022/08/03 00:29:35;;;;;;;;;;;27.50;42.90;;;;;;1632283;72;605;-63
2022/08/03 00:31:37;;;;;;;;;;;27.50;43.00;;;;;;1634129;72;1951;-65
2022/08/03 00:33:38;;;;;;;;;;;27.50;42.80;;;;;;1622404;71;657;-67
2022/08/03 00:35:40;;;;;;;;;;;27.50;42.80;;;;;;1635863;71;636;-68
2022/08/03 00:37:42;;;;;;;;;;;27.40;42.80;;;;;;1628571;71;806;-65
2022/08/03 00:39:46;;;;;;;;;;;27.50;42.80;;;;;;1637353;71;1464;-66
2022/08/03 00:41:47;;;;;;;;;;;27.40;42.80;;;;;;1636719;72;1203;-67
2022/08/03 00:43:49;;;;;;;;;;;27.50;42.80;;;;;;1637729;71;779;-67
2022/08/03 00:45:51;;;;;;;;;;;27.50;42.80;;;;;;1635378;71;719;-67
2022/08/03 00:47:53;;;;;;;;;;;27.40;42.80;;;;;;1636247;71;750;-65
2022/08/03 00:49:55;;;;;;;;;;;27.40;42.80;;;;;;1635811;72;1103;-65
2022/08/03 00:51:57;;;;;;;;;;;27.50;42.80;;;;;;1634206;71;1935;-66
2022/08/03 00:53:59;;;;;;;;;;;27.50;42.80;;;;;;1639430;71;1482;-66
2022/08/03 00:56:01;;;;;;;;;;;27.40;42.80;;;;;;1636213;71;704;-65
2022/08/03 00:58:07;;;;;;;;;;;27.50;42.80;;;;;;1632980;71;679;-66
2022/08/03 01:00:06;;;;;;;;;;;27.40;42.80;;;;;;1633380;71;1197;-67
2022/08/03 01:02:08;;;;;;;;;;;27.50;42.80;;;;;;1637516;71;645;-67
2022/08/03 01:04:10;;;;;;;;;;;27.40;42.80;;;;;;1628756;71;706;-66
2022/08/03 01:06:14;;;;;;;;;;;27.50;42.80;;;;;;1628273;71;684;-66
2022/08/03 01:08:17;;;;;;;;;;;27.40;42.90;;;;;;1631195;71;2041;-67
2022/08/03 01:10:21;;;;;;;;;;;27.40;42.80;;;;;;1632952;71;1170;-67
2022/08/03 01:12:31;;;;;;;;;;;27.40;42.90;;;;;;1632523;72;1926;-66
2022/08/03 01:14:34;;;;;;;;;;;27.50;42.80;;;;;;1632698;71;753;-67
2022/08/03 01:16:44;;;;;;;;;;;27.40;42.80;;;;;;1635814;72;704;-67
2022/08/03 01:18:47;;;;;;;;;;;27.40;42.80;;;;;;1632488;71;672;-65
2022/08/03 01:20:52;;;;;;;;;;;27.40;42.70;;;;;;1620550;70;2739;-64
2022/08/03 01:22:58;;;;;;;;;;;27.40;42.80;;;;;;1577189;74;1587;-63
2022/08/03 01:25:08;;;;;;;;;;;27.40;42.70;;;;;;1577570;74;1531;-65
2022/08/03 01:27:14;;;;;;;;;;;27.40;42.80;;;;;;1582199;74;701;-64
2022/08/03 01:29:21;;;;;;;;;;;27.40;42.80;;;;;;1582015;74;710;-64
2022/08/03 01:31:23;;;;;;;;;;;27.40;42.80;;;;;;1555398;74;1955;-66
2022/08/03 01:33:30;;;;;;;;;;;27.40;42.80;;;;;;1560750;75;737;-64
2022/08/03 01:35:48;;;;;;;;;;;27.40;42.90;;;;;;1555259;75;2281;-64
2022/08/03 01:37:52;;;;;;;;;;;27.40;42.90;;;;;;1526917;77;2041;-64
2022/08/03 01:39:54;;;;;;;;;;;27.40;43.00;;;;;;1502541;78;1701;-64
2022/08/03 01:41:59;;;;;;;;;;;27.40;42.90;;;;;;1495839;78;1100;-64
2022/08/03 01:44:02;;;;;;;;;;;27.40;43.00;;;;;;1502541;78;671;-64
2022/08/03 01:46:04;;;;;;;;;;;27.40;43.00;;;;;;1499363;78;803;-65
2022/08/03 01:48:06;;;;;;;;;;;27.40;43.00;;;;;;1495453;78;721;-64
2022/08/03 01:50:08;;;;;;;;;;;27.40;43.00;;;;;;1499642;78;1554;-63
2022/08/03 01:52:10;;;;;;;;;;;27.40;43.00;;;;;;1495495;78;1924;-65
2022/08/03 01:54:12;;;;;;;;;;;27.40;43.00;;;;;;1508930;78;810;-64
2022/08/03 01:56:14;;;;;;;;;;;27.40;43.00;;;;;;1486730;78;637;-64
2022/08/03 01:58:16;;;;;;;;;;;27.40;43.00;;;;;;1505370;78;698;-64
2022/08/03 02:00:18;;;;;;;;;;;27.40;43.00;;;;;;1496821;77;1111;-65
2022/08/03 02:02:20;;;;;;;;;;;27.40;43.00;;;;;;1502923;78;748;-64
2022/08/03 02:04:22;;;;;;;;;;;27.40;43.00;;;;;;1504262;78;1599;-64
2022/08/03 02:06:23;;;;;;;;;;;27.40;43.00;;;;;;1488348;78;712;-63
2022/08/03 02:08:25;;;;;;;;;;;27.40;43.00;;;;;;1502857;78;755;-67
2022/08/03 02:10:27;;;;;;;;;;;27.40;43.00;;;;;;1490945;78;1101;-63
2022/08/03 02:12:29;;;;;;;;;;;27.40;43.10;;;;;;1508980;78;1933;-64
2022/08/03 02:14:31;;;;;;;;;;;27.40;43.00;;;;;;1495347;78;739;-63
2022/08/03 02:16:33;;;;;;;;;;;27.40;42.90;;;;;;1504791;77;669;-64
2022/08/03 02:18:38;;;;;;;;;;;27.40;43.00;;;;;;1494304;78;1561;-63
2022/08/03 02:20:38;;;;;;;;;;;27.40;43.00;;;;;;1492013;78;1667;-63
2022/08/03 02:22:41;;;;;;;;;;;27.40;43.00;;;;;;1516690;77;760;-64
2022/08/03 02:24:43;;;;;;;;;;;27.40;43.00;;;;;;1491581;78;668;-63
2022/08/03 02:26:44;;;;;;;;;;;27.40;42.90;;;;;;1496419;78;719;-64
2022/08/03 02:28:48;;;;;;;;;;;27.40;43.00;;;;;;1487398;78;974;-63
2022/08/03 02:30:51;;;;;;;;;;;27.40;43.00;;;;;;1488830;78;1156;-63
2022/08/03 02:32:54;;;;;;;;;;;27.40;42.90;;;;;;1500549;77;1955;-65
2022/08/03 02:34:56;;;;;;;;;;;27.40;42.90;;;;;;1505495;77;928;-63
2022/08/03 02:36:59;;;;;;;;;;;27.40;42.90;;;;;;1507493;77;751;-67
2022/08/03 02:39:02;;;;;;;;;;;27.50;42.80;;;;;;1506199;77;712;-64
2022/08/03 02:41:04;;;;;;;;;;;27.40;42.80;;;;;;1513767;77;1149;-64
2022/08/03 02:43:10;;;;;;;;;;;27.40;42.80;;;;;;1521313;77;656;-65
2022/08/03 02:45:12;;;;;;;;;;;27.40;42.80;;;;;;1506206;78;754;-63
2022/08/03 02:47:14;;;;;;;;;;;27.40;42.80;;;;;;1498103;78;1570;-63
2022/08/03 02:49:17;;;;;;;;;;;27.40;42.80;;;;;;1509600;78;682;-63
2022/08/03 02:51:20;;;;;;;;;;;27.40;42.90;;;;;;1504983;77;1944;-64
2022/08/03 02:53:22;;;;;;;;;;;27.40;42.90;;;;;;1490969;78;634;-63
2022/08/03 02:55:23;;;;;;;;;;;27.40;42.80;;;;;;1493130;78;784;-63
2022/08/03 02:57:27;;;;;;;;;;;27.40;42.80;;;;;;1473799;79;747;-64
2022/08/03 02:59:30;;;;;;;;;;;27.40;42.80;;;;;;1510411;77;1805;-66
2022/08/03 03:01:32;;;;;;;;;;;27.40;42.80;;;;;;1504896;76;1592;-65
2022/08/03 03:03:33;;;;;;;;;;;27.40;42.80;;;;;;1517155;77;680;-64
2022/08/03 03:05:35;;;;;;;;;;;27.40;42.80;;;;;;1525308;77;685;-63
2022/08/03 03:07:37;;;;;;;;;;;27.40;42.80;;;;;;1516752;77;669;-64
2022/08/03 03:09:39;;;;;;;;;;;27.40;42.80;;;;;;1500532;78;683;-67
2022/08/03 03:11:41;;;;;;;;;;;27.40;42.80;;;;;;1514954;77;1956;-64
2022/08/03 03:13:43;;;;;;;;;;;27.40;42.80;;;;;;1492536;78;675;-65
2022/08/03 03:15:45;;;;;;;;;;;27.40;42.80;;;;;;1494366;78;1570;-66
2022/08/03 03:17:47;;;;;;;;;;;27.40;42.80;;;;;;1500110;78;711;-65
2022/08/03 03:19:49;;;;;;;;;;;27.40;42.80;;;;;;1491668;78;692;-65
2022/08/03 03:21:51;;;;;;;;;;;27.40;42.80;;;;;;1499764;78;1119;-66
2022/08/03 03:23:53;;;;;;;;;;;27.40;42.80;;;;;;1520955;77;825;-63
2022/08/03 03:25:55;;;;;;;;;;;27.40;42.90;;;;;;1514547;77;764;-62
2022/08/03 03:27:57;;;;;;;;;;;27.40;42.80;;;;;;1515236;77;774;-64
2022/08/03 03:29:59;;;;;;;;;;;27.40;42.70;;;;;;1507364;78;1710;-63
2022/08/03 03:32:01;;;;;;;;;;;27.40;42.70;;;;;;1499773;78;1927;-63
2022/08/03 03:34:03;;;;;;;;;;;27.40;42.60;;;;;;1498016;78;1068;-63
2022/08/03 03:36:06;;;;;;;;;;;27.40;42.70;;;;;;1499065;77;693;-64
2022/08/03 03:38:08;;;;;;;;;;;27.40;42.60;;;;;;1551962;75;707;-65
2022/08/03 03:40:10;;;;;;;;;;;27.40;42.60;;;;;;1556679;75;1105;-64
2022/08/03 03:42:12;;;;;;;;;;;27.40;42.70;;;;;;1553725;75;1538;-63
2022/08/03 03:44:14;;;;;;;;;;;27.40;42.80;;;;;;1553472;75;693;-64
2022/08/03 03:46:16;;;;;;;;;;;27.40;42.70;;;;;;1551250;75;790;-64
2022/08/03 03:48:18;;;;;;;;;;;27.40;42.70;;;;;;1553728;75;722;-63
2022/08/03 03:50:19;;;;;;;;;;;27.40;42.70;;;;;;1562005;74;1142;-63
2022/08/03 03:52:21;;;;;;;;;;;27.40;42.70;;;;;;1559868;75;1933;-66
2022/08/03 03:54:23;;;;;;;;;;;27.40;42.70;;;;;;1555794;75;762;-65
2022/08/03 03:56:25;;;;;;;;;;;27.40;42.70;;;;;;1561762;75;1562;-64
2022/08/03 03:58:27;;;;;;;;;;;27.40;42.70;;;;;;1569364;75;672;-64
2022/08/03 04:00:29;;;;;;;;;;;27.30;42.80;;;;;;1568867;74;1178;-65
2022/08/03 04:02:31;;;;;;;;;;;27.30;42.80;;;;;;1554591;75;765;-64
2022/08/03 04:11:29;;;;;;;;;;;27.30;42.80;;;;;;1524234;77;1703;-64
2022/08/03 04:13:32;;;;;;;;;;;27.40;42.90;;;;;;1542759;75;655;-66
2022/08/03 04:15:34;;;;;;;;;;;27.30;42.90;;;;;;1552428;75;1785;-65
2022/08/03 04:17:36;;;;;;;;;;;27.40;42.90;;;;;;1553149;75;685;-62
2022/08/03 04:19:40;;;;;;;;;;;27.30;42.90;;;;;;1548942;75;754;-64
2022/08/03 04:21:43;;;;;;;;;;;27.40;42.90;;;;;;1546594;74;1140;-63
2022/08/03 04:23:45;;;;;;;;;;;27.40;42.90;;;;;;1546583;75;773;-64
2022/08/03 04:25:48;;;;;;;;;;;27.40;42.90;;;;;;1548906;75;1595;-64
2022/08/03 04:27:51;;;;;;;;;;;27.30;42.90;;;;;;1547650;75;718;-66
2022/08/03 04:29:54;;;;;;;;;;;27.30;42.90;;;;;;1551939;75;718;-64
2022/08/03 04:31:56;;;;;;;;;;;27.30;42.80;;;;;;1547303;75;1913;-64
2022/08/03 04:33:58;;;;;;;;;;;27.30;42.90;;;;;;1546461;75;663;-65
2022/08/03 04:36:00;;;;;;;;;;;27.30;42.80;;;;;;1548462;75;624;-64
2022/08/03 04:38:02;;;;;;;;;;;27.40;42.90;;;;;;1547051;75;811;-66
2022/08/03 04:40:05;;;;;;;;;;;27.30;42.80;;;;;;1548164;75;1281;-65
2022/08/03 04:42:07;;;;;;;;;;;27.30;42.80;;;;;;1548381;75;1184;-64
2022/08/03 04:44:09;;;;;;;;;;;27.30;42.80;;;;;;1541354;75;736;-66
2022/08/03 04:46:11;;;;;;;;;;;27.30;42.80;;;;;;1550593;75;737;-66
2022/08/03 04:48:14;;;;;;;;;;;27.40;42.80;;;;;;1547295;75;734;-63
2022/08/03 04:50:16;;;;;;;;;;;27.40;42.70;;;;;;1548825;75;1136;-64
2022/08/03 04:52:18;;;;;;;;;;;27.40;42.70;;;;;;1548029;75;1963;-63
2022/08/03 04:54:19;;;;;;;;;;;27.40;42.70;;;;;;1543165;75;1598;-67
2022/08/03 04:56:21;;;;;;;;;;;27.40;42.80;;;;;;1549186;75;859;-64
2022/08/03 04:58:23;;;;;;;;;;;27.40;42.70;;;;;;1546298;75;697;-64
2022/08/03 05:00:26;;;;;;;;;;;27.30;42.70;;;;;;1541577;75;1160;-63
2022/08/03 05:02:28;;;;;;;;;;;27.40;42.80;;;;;;1545416;75;780;-64
2022/08/03 05:04:30;;;;;;;;;;;27.30;42.80;;;;;;1552216;75;670;-63
2022/08/03 05:06:32;;;;;;;;;;;27.40;42.70;;;;;;1553130;75;691;-64
2022/08/03 05:08:34;;;;;;;;;;;27.30;42.80;;;;;;1538449;75;669;-64
2022/08/03 05:10:36;;;;;;;;;;;27.30;42.80;;;;;;1553768;75;1139;-64
2022/08/03 05:12:38;;;;;;;;;;;27.30;42.70;;;;;;1550378;75;1941;-64
2022/08/03 05:14:40;;;;;;;;;;;27.40;42.80;;;;;;1546299;75;656;-64
2022/08/03 05:16:42;;;;;;;;;;;27.30;42.80;;;;;;1545309;75;751;-63
2022/08/03 05:18:44;;;;;;;;;;;27.30;42.80;;;;;;1547554;75;758;-66
2022/08/03 05:20:46;;;;;;;;;;;27.40;42.80;;;;;;1549356;75;1622;-64
2022/08/03 05:22:48;;;;;;;;;;;27.30;42.80;;;;;;1547861;75;777;-63
2022/08/03 05:24:50;;;;;;;;;;;27.30;42.80;;;;;;1545787;75;723;-65
2022/08/03 05:26:52;;;;;;;;;;;27.30;42.80;;;;;;1549564;75;682;-65
2022/08/03 05:28:54;;;;;;;;;;;27.30;42.80;;;;;;1548283;75;712;-66
2022/08/03 05:30:56;;;;;;;;;;;27.30;42.80;;;;;;1543743;75;1121;-64
2022/08/03 05:32:58;;;;;;;;;;;27.30;42.70;;;;;;1543145;75;1936;-64
2022/08/03 05:35:00;;;;;;;;;;;27.20;42.80;;;;;;1544277;75;1527;-64
2022/08/03 05:37:02;;;;;;;;;;;27.40;42.80;;;;;;1544316;75;766;-65
2022/08/03 05:39:04;;;;;;;;;;;27.40;42.80;;;;;;1530687;75;702;-62
2022/08/03 05:41:06;;;;;;;;;;;27.30;42.80;;;;;;1559406;75;1132;-70
2022/08/03 05:43:08;;;;;;;;;;;27.30;42.90;;;;;;1567019;75;684;-64
2022/08/03 05:45:17;;;;;;;;;;;27.40;42.90;;;;;;1554367;75;716;-64
2022/08/03 05:47:16;;;;;;;;;;;27.30;42.80;;;;;;1558679;75;1285;-65
2022/08/03 05:49:18;;;;;;;;;;;27.40;42.70;;;;;;1560051;75;1575;-65
2022/08/03 05:51:20;;;;;;;;;;;27.40;42.70;;;;;;1560604;74;1162;-67
2022/08/03 05:53:22;;;;;;;;;;;27.30;42.80;;;;;;1548625;75;1905;-67
2022/08/03 05:55:24;;;;;;;;;;;27.40;42.70;;;;;;1558441;75;743;-65
2022/08/03 05:57:26;;;;;;;;;;;27.30;42.80;;;;;;1551781;75;697;-65
2022/08/03 05:59:28;;;;;;;;;;;27.40;42.70;;;;;;1559292;75;707;-65
2022/08/03 06:01:31;;;;;;;;;;;27.40;42.70;;;;;;1548582;75;1188;-65
2022/08/03 06:03:33;;;;;;;;;;;27.40;42.60;;;;;;1551009;75;1561;-66
2022/08/03 06:05:35;;;;;;;;;;;27.40;42.60;;;;;;1556797;75;665;-66
2022/08/03 06:07:37;;;;;;;;;;;27.40;42.60;;;;;;1554793;75;650;-66
2022/08/03 06:09:40;;;;;;;;;;;27.40;42.60;;;;;;1553748;75;666;-65
2022/08/03 06:11:42;;;;;;;;;;;27.30;42.70;;;;;;1556462;75;1148;-63
2022/08/03 06:13:44;;;;;;;;;;;27.30;42.60;;;;;;1554412;75;1941;-67
2022/08/03 06:15:46;;;;;;;;;;;27.30;42.60;;;;;;1554338;75;626;-62
2022/08/03 06:17:48;;;;;;;;;;;27.30;42.70;;;;;;1561957;75;1588;-64
2022/08/03 06:19:52;;;;;;;;;;;27.30;42.70;;;;;;1566790;75;757;-65
2022/08/03 06:21:54;;;;;;;;;;;27.30;42.70;;;;;;1556050;74;1105;-65
2022/08/03 06:23:56;;;;;;;;;;;27.30;42.80;;;;;;1556862;75;776;-65
2022/08/03 06:25:57;;;;;;;;;;;27.20;42.80;;;;;;1556158;75;678;-67
2022/08/03 06:27:59;;;;;;;;;;;27.20;42.80;;;;;;1556366;75;761;-66
2022/08/03 06:30:02;;;;;;;;;;;27.20;42.90;;;;;;1556330;75;637;-66
2022/08/03 06:32:04;;;;;;;;;;;27.20;42.90;;;;;;1552138;75;1692;-65
2022/08/03 06:34:05;;;;;;;;;;;27.10;42.90;;;;;;1557879;75;1939;-67
2022/08/03 06:36:07;;;;;;;;;;;27.30;42.90;;;;;;1546835;74;704;-65
2022/08/03 06:38:09;;;;;;;;;;;27.20;43.00;;;;;;1556674;75;710;-64
2022/08/03 06:40:15;;;;;;;;;;;27.20;43.00;;;;;;1559890;75;1140;-64
2022/08/03 06:42:17;;;;;;;;;;;27.20;43.00;;;;;;1550257;75;711;-65
2022/08/03 06:44:19;;;;;;;;;;;27.20;43.10;;;;;;1560223;75;773;-65
2022/08/03 06:46:21;;;;;;;;;;;27.10;43.10;;;;;;1572219;75;1605;-66
2022/08/03 06:48:23;;;;;;;;;;;27.20;43.10;;;;;;1562846;75;722;-67
2022/08/03 06:50:24;;;;;;;;;;;27.30;43.10;;;;;;1571282;74;1134;-64
2022/08/03 06:52:26;;;;;;;;;;;27.30;43.20;;;;;;1561962;75;751;-65
2022/08/03 06:54:28;;;;;;;;;;;27.20;43.20;;;;;;1556371;75;1941;-65
2022/08/03 06:56:30;;;;;;;;;;;27.30;43.30;;;;;;1554456;75;731;-65
2022/08/03 06:58:32;;;;;;;;;;;27.20;43.30;;;;;;1571583;75;710;-65
2022/08/03 07:00:34;;;;;;;;;;;27.20;43.30;;;;;;1558474;75;1386;-65
2022/08/03 07:02:36;;;;;;;;;;;27.20;43.30;;;;;;1566669;75;646;-65
2022/08/03 07:04:38;;;;;;;;;;;27.20;43.30;;;;;;1562557;75;674;-67
2022/08/03 07:06:39;;;;;;;;;;;27.30;43.30;;;;;;1551791;75;690;-65
2022/08/03 07:08:41;;;;;;;;;;;27.20;43.30;;;;;;1565211;75;708;-71
2022/08/03 07:10:44;;;;;;;;;;;27.20;43.30;;;;;;1551906;75;1184;-66
2022/08/03 07:12:46;;;;;;;;;;;27.30;43.30;;;;;;1504806;77;1930;-66
2022/08/03 07:14:48;;;;;;;;;;;27.30;43.30;;;;;;1491537;78;1521;-65
2022/08/03 07:16:50;;;;;;;;;;;27.40;43.30;;;;;;1505443;78;743;-67
2022/08/03 07:18:51;;;;;;;;;;;27.50;43.20;;;;;;1497854;78;689;-65
2022/08/03 07:20:53;;;;;;;;;;;27.50;43.10;;;;;;1507120;73;2184;-64
2022/08/03 07:22:55;;;;;;;;;;;27.60;43.20;;;;;;1589772;73;678;-64
2022/08/03 07:24:57;;;;;;;;;;;27.60;43.10;;;;;;1577144;73;688;-64
2022/08/03 07:26:59;;;;;;;;;;;27.60;43.00;;;;;;1566725;74;738;-61
2022/08/03 07:29:01;;;;;;;;;;;27.70;43.10;;;;;;1574077;73;1708;-64
2022/08/03 07:31:03;;;;;;;;;;;27.70;43.10;;;;;;1579835;73;1212;-62
2022/08/03 07:33:04;;;;;;;;;;;27.70;43.10;;;;;;1599384;72;1930;-65
2022/08/03 07:35:07;;;;;;;;;;;27.70;43.10;;;;;;1592953;72;718;-65
2022/08/03 07:37:09;;;;;;;;;;;27.70;43.10;;;;;;1582841;75;588;-65
2022/08/03 07:39:10;;;;;;;;;;;27.70;43.10;;;;;;1584275;74;649;-63
2022/08/03 07:41:12;;;;;;;;;;;27.70;43.10;;;;;;1584932;74;1140;-64
2022/08/03 07:43:14;;;;;;;;;;;27.70;43.10;;;;;;1584278;74;1628;-65
2022/08/03 07:45:16;;;;;;;;;;;27.70;43.10;;;;;;1584027;74;637;-65
2022/08/03 07:47:20;;;;;;;;;;;27.70;43.10;;;;;;1596958;73;625;-65
2022/08/03 07:49:21;;;;;;;;;;;27.70;43.00;;;;;;1610076;73;1025;-65
2022/08/03 07:51:23;;;;;;;;;;;27.70;43.20;;;;;;1574869;73;1130;-65
2022/08/03 07:53:25;;;;;;;;;;;27.70;43.10;;;;;;1584243;73;1937;-64
2022/08/03 07:55:29;;;;;;;;;;;27.80;43.10;;;;;;1577101;73;1472;-64
2022/08/03 07:57:30;;;;;;;;;;;27.70;43.00;;;;;;1584600;74;676;-64
2022/08/03 07:59:34;;;;;;;;;;;27.80;43.00;;;;;;1577908;73;666;-62
2022/08/03 08:01:36;;;;;;;;;;;27.80;43.00;;;;;;1583107;73;1141;-64
2022/08/03 08:03:38;;;;;;;;;;;27.90;42.90;;;;;;1588195;73;717;-64
2022/08/03 08:05:40;;;;;;;;;;;27.90;42.80;;;;;;1589373;73;721;-66
2022/08/03 08:07:42;;;;;;;;;;;27.90;42.70;;;;;;1579591;73;669;-63
2022/08/03 08:09:44;;;;;;;;;;;27.90;42.80;;;;;;1598498;73;1481;-66
2022/08/03 08:11:46;;;;;;;;;;;28.00;43.40;;;;;;1611833;72;1174;-65
2022/08/03 08:13:48;;;;;;;;;;;28.00;43.40;;;;;;1600894;73;1951;-62
2022/08/03 08:15:49;;;;;;;;;;;28.10;43.20;;;;;;1602040;72;710;-63
2022/08/03 08:17:52;;;;;;;;;;;28.10;43.10;;;;;;1614591;72;656;-64
2022/08/03 08:19:54;;;;;;;;;;;28.10;43.10;;;;;;1598625;72;684;-65
2022/08/03 08:21:56;;;;;;;;;;;28.10;43.10;;;;;;1605343;72;1154;-64
2022/08/03 08:23:58;;;;;;;;;;;28.10;43.20;;;;;;1611242;72;1412;-63
2022/08/03 08:26:00;;;;;;;;;;;28.10;43.10;;;;;;1602562;72;750;-65
2022/08/03 08:28:03;;;;;;;;;;;28.10;43.10;;;;;;1613370;72;637;-65
2022/08/03 08:30:06;;;;;;;;;;;28.00;43.20;;;;;;1601140;72;758;-64
2022/08/03 08:32:10;;;;;;;;;;;28.00;43.40;;;;;;1611092;73;1162;-63
2022/08/03 08:34:11;;;;;;;;;;;27.90;42.90;;;;;;1611188;73;1919;-66
2022/08/03 08:36:13;;;;;;;;;;;27.90;43.00;;;;;;1594864;72;763;-66
2022/08/03 08:38:15;;;;;;;;;;;27.80;43.10;;;;;;1598571;72;1560;-65
2022/08/03 08:40:17;;;;;;;;;;;27.80;43.20;;;;;;1592535;72;680;-65
2022/08/03 08:42:18;;;;;;;;;;;27.80;43.20;;;;;;1609070;73;1135;-66
2022/08/03 08:44:20;;;;;;;;;;;27.80;43.30;;;;;;1599872;72;716;-64
2022/08/03 08:46:22;;;;;;;;;;;27.70;43.30;;;;;;1597618;72;706;-66
2022/08/03 08:48:25;;;;;;;;;;;27.70;43.40;;;;;;1599778;72;702;-64
2022/08/03 08:50:28;;;;;;;;;;;27.70;43.30;;;;;;1596895;72;694;-64
2022/08/03 08:52:30;;;;;;;;;;;27.70;43.40;;;;;;1605061;72;1491;-65
2022/08/03 08:54:32;;;;;;;;;;;27.70;43.40;;;;;;1605106;72;1924;-64
2022/08/03 08:56:34;;;;;;;;;;;27.70;43.40;;;;;;1601199;73;665;-67
2022/08/03 08:58:38;;;;;;;;;;;27.60;43.50;;;;;;1596908;72;676;-66
2022/08/03 09:00:40;;;;;;;;;;;27.70;43.50;;;;;;1603617;73;1147;-65
2022/08/03 09:02:42;;;;;;;;;;;27.70;43.50;;;;;;1607863;72;658;-63
2022/08/03 09:04:47;;;;;;;;;;;27.60;43.40;;;;;;1608883;73;676;-66
2022/08/03 09:06:48;;;;;;;;;;;27.70;43.50;;;;;;1600094;72;1656;-64
2022/08/03 09:08:50;;;;;;;;;;;27.70;43.50;;;;;;1606806;72;663;-65
2022/08/03 09:10:52;;;;;;;;;;;27.60;43.50;;;;;;1607020;73;1154;-65
2022/08/03 09:12:53;;;;;;;;;;;27.70;43.40;;;;;;1606598;72;713;-65
2022/08/03 09:14:55;;;;;;;;;;;27.70;43.40;;;;;;1601783;72;1940;-64
2022/08/03 09:17:04;;;;;;;;;;;27.70;43.50;;;;;;1599074;72;674;-66
2022/08/03 09:19:15;;;;;;;;;;;27.70;43.50;;;;;;1611699;72;672;-65
2022/08/03 09:21:21;;;;;;;;;;;27.60;43.50;;;;;;1607264;72;1602;-64
2022/08/03 09:23:23;;;;;;;;;;;27.70;43.50;;;;;;1600771;72;774;-65
2022/08/03 09:25:30;;;;;;;;;;;27.70;43.50;;;;;;1596310;73;704;-67
2022/08/03 09:27:33;;;;;;;;;;;27.70;43.50;;;;;;1599073;73;658;-66
2022/08/03 09:29:35;;;;;;;;;;;27.60;43.50;;;;;;1606610;72;1582;-64
2022/08/03 09:31:38;;;;;;;;;;;27.60;43.50;;;;;;1601871;72;1156;-65
2022/08/03 09:33:46;;;;;;;;;;;27.70;43.40;;;;;;1600535;73;1909;-64
2022/08/03 09:35:48;;;;;;;;;;;27.70;43.40;;;;;;1609138;72;621;-65
2022/08/03 09:37:52;;;;;;;;;;;27.70;43.40;;;;;;1604821;72;634;-66
2022/08/03 09:39:54;;;;;;;;;;;27.60;43.40;;;;;;1604079;72;1716;-64
2022/08/03 09:42:06;;;;;;;;;;;27.60;43.40;;;;;;1605373;72;1141;-65
2022/08/03 09:44:08;;;;;;;;;;;27.60;43.40;;;;;;1594459;72;618;-66
2022/08/03 09:46:10;;;;;;;;;;;27.60;43.40;;;;;;1602809;73;673;-64
2022/08/03 09:48:22;;;;;;;;;;;27.70;43.40;;;;;;1604107;72;1463;-64
2022/08/03 09:50:24;;;;;;;;;;;27.60;43.40;;;;;;1600955;72;658;-64
2022/08/03 09:52:27;;;;;;;;;;;27.60;43.40;;;;;;1595061;72;1079;-63
2022/08/03 09:54:29;;;;;;;;;;;27.60;43.40;;;;;;1596888;73;2070;-63
2022/08/03 09:56:42;;;;;;;;;;;27.60;43.40;;;;;;1606091;72;560;-64
2022/08/03 09:58:45;;;;;;;;;;;27.60;43.40;;;;;;1599324;73;1686;-63
2022/08/03 10:00:52;;;;;;;;;;;27.60;43.40;;;;;;1601936;72;1131;-63
2022/08/03 10:02:54;;;;;;;;;;;27.60;43.40;;;;;;1605746;73;1460;-65
2022/08/03 10:04:56;;;;;;;;;;;27.60;43.30;;;;;;1581208;73;1209;-63
2022/08/03 10:07:05;;;;;;;;;;;27.60;43.30;;;;;;1633024;72;614;-64
2022/08/03 10:09:14;;;;;;;;;;;27.60;43.30;;;;;;1637061;70;679;-64
2022/08/03 10:11:29;;;;;;;;;;;27.60;43.30;;;;;;1630583;70;1439;-65
2022/08/03 10:13:31;;;;;;;;;;;27.60;43.30;;;;;;1638811;70;605;-64
2022/08/03 10:15:33;;;;;;;;;;;27.60;43.30;;;;;;1643366;72;1934;-64
2022/08/03 10:17:35;;;;;;;;;;;27.60;43.30;;;;;;1633386;72;1481;-65
2022/08/03 10:19:37;;;;;;;;;;;27.60;43.20;;;;;;1644754;70;681;-66
2022/08/03 10:21:39;;;;;;;;;;;27.60;43.10;;;;;;1636851;70;1157;-64
2022/08/03 10:23:41;;;;;;;;;;;27.60;43.10;;;;;;1635094;72;796;-63
2022/08/03 10:25:43;;;;;;;;;;;27.60;43.10;;;;;;1644527;70;629;-64
2022/08/03 10:27:46;;;;;;;;;;;27.60;43.10;;;;;;1634224;70;691;-64
2022/08/03 10:29:50;;;;;;;;;;;27.60;43.10;;;;;;1646539;70;705;-66
2022/08/03 10:31:52;;;;;;;;;;;27.60;43.10;;;;;;1633669;70;1723;-64
2022/08/03 10:33:54;;;;;;;;;;;27.60;43.10;;;;;;1629904;70;1928;-64
2022/08/03 10:35:56;;;;;;;;;;;27.60;43.10;;;;;;1638097;70;665;-65
2022/08/03 10:38:02;;;;;;;;;;;27.50;43.10;;;;;;1635652;70;751;-63
2022/08/03 10:40:05;;;;;;;;;;;27.60;43.00;;;;;;1644242;70;1013;-64
2022/08/03 10:42:07;;;;;;;;;;;27.60;43.00;;;;;;1633495;70;1097;-66
2022/08/03 10:44:16;;;;;;;;;;;27.60;43.00;;;;;;1638724;70;1467;-63
2022/08/03 10:46:19;;;;;;;;;;;27.60;42.90;;;;;;1641926;70;660;-64
2022/08/03 10:48:21;;;;;;;;;;;27.60;42.80;;;;;;1648731;72;737;-65
2022/08/03 10:50:24;;;;;;;;;;;27.50;42.80;;;;;;1648598;72;773;-66
2022/08/03 10:52:26;;;;;;;;;;;27.50;42.80;;;;;;1637961;70;1087;-65
2022/08/03 10:59:02;;;;;;;;;;;27.60;42.80;;;;;;1631885;72;1646;-65
2022/08/03 11:01:04;;;;;;;;;;;27.50;42.80;;;;;;1641523;70;1124;-68
2022/08/03 11:03:15;;;;;;;;;;;27.50;42.70;;;;;;1640851;72;654;-67
2022/08/03 11:05:18;;;;;;;;;;;27.60;42.60;;;;;;1637603;70;868;-67
2022/08/03 11:07:23;;;;;;;;;;;27.70;42.50;;;;;;1644174;70;1663;-69
2022/08/03 11:09:25;;;;;;;;;;;27.60;42.50;;;;;;1645188;72;758;-66
2022/08/03 11:11:27;;;;;;;;;;;27.50;42.50;;;;;;1638757;72;1173;-65
2022/08/03 11:13:32;;;;;;;;;;;27.50;42.50;;;;;;1643992;70;1580;-65
2022/08/03 11:15:34;;;;;;;;;;;27.60;42.50;;;;;;1636609;70;2001;-67
2022/08/03 11:17:37;;;;;;;;;;;27.50;42.50;;;;;;1631738;70;601;-67
2022/08/03 11:19:43;;;;;;;;;;;27.50;42.50;;;;;;1642652;72;699;-67
2022/08/03 11:21:50;;;;;;;;;;;27.50;42.50;;;;;;1638612;70;1178;-66
2022/08/03 11:23:52;;;;;;;;;;;27.50;42.50;;;;;;1643284;72;820;-67
2022/08/03 11:26:12;;;;;;;;;;;27.50;42.50;;;;;;1643139;70;679;-67
2022/08/03 11:28:27;;;;;;;;;;;27.50;42.40;;;;;;1632461;72;1503;-68
2022/08/03 11:30:29;;;;;;;;;;;27.60;42.40;;;;;;1630618;70;637;-65
2022/08/03 11:32:50;;;;;;;;;;;27.50;42.30;;;;;;1639636;72;1155;-66
2022/08/03 11:35:06;;;;;;;;;;;27.60;42.30;;;;;;1638244;70;1914;-68
2022/08/03 11:37:20;;;;;;;;;;;27.60;42.20;;;;;;1642404;70;732;-68
2022/08/03 11:39:22;;;;;;;;;;;27.50;42.20;;;;;;1639699;72;635;-67
2022/08/03 11:41:33;;;;;;;;;;;27.60;42.10;;;;;;1637655;72;1583;-67
2022/08/03 11:43:40;;;;;;;;;;;27.60;42.10;;;;;;1638607;70;703;-65
2022/08/03 11:45:40;;;;;;;;;;;27.60;42.10;;;;;;1633100;70;1165;-67
2022/08/03 11:47:43;;;;;;;;;;;27.60;42.10;;;;;;1646533;71;1154;-66
2022/08/03 11:49:48;;;;;;;;;;;27.60;42.20;;;;;;1630290;70;706;-66
2022/08/03 11:51:51;;;;;;;;;;;27.60;42.10;;;;;;1643715;70;1153;-67
2022/08/03 11:53:57;;;;;;;;;;;27.60;42.10;;;;;;1647725;70;657;-67
2022/08/03 11:56:00;;;;;;;;;;;27.50;42.20;;;;;;1635833;72;1934;-66
2022/08/03 11:58:01;;;;;;;;;;;27.60;42.10;;;;;;1633692;70;715;-66
2022/08/03 12:00:05;;;;;;;;;;;27.60;42.20;;;;;;1639319;72;703;-67
2022/08/03 12:02:10;;;;;;;;;;;27.60;42.10;;;;;;1641787;70;1148;-67
2022/08/03 12:04:12;;;;;;;;;;;27.50;42.10;;;;;;1634687;70;684;-67
2022/08/03 12:06:14;;;;;;;;;;;27.60;42.20;;;;;;1636643;72;747;-69
2022/08/03 12:08:17;;;;;;;;;;;27.50;42.10;;;;;;1634679;70;717;-64
2022/08/03 12:10:22;;;;;;;;;;;27.60;42.10;;;;;;1635197;70;1642;-64
2022/08/03 12:12:24;;;;;;;;;;;27.50;42.20;;;;;;1634233;70;1101;-64
2022/08/03 12:14:26;;;;;;;;;;;27.60;42.10;;;;;;1633967;70;1921;-64
2022/08/03 12:16:28;;;;;;;;;;;27.60;42.10;;;;;;1635709;72;683;-65
2022/08/03 12:18:31;;;;;;;;;;;27.60;42.10;;;;;;1636848;70;695;-64
2022/08/03 12:20:33;;;;;;;;;;;27.60;42.20;;;;;;1634896;72;1197;-65
2022/08/03 12:22:36;;;;;;;;;;;27.60;42.10;;;;;;1630694;70;1422;-64
2022/08/03 12:24:41;;;;;;;;;;;27.60;42.20;;;;;;1637975;70;685;-64